Time;durP1;ratioP1;P1;durP2;ratioP2;P2;SDS_P1;SDS_P2;PMS_P1;PMS_P2;Temp;Humidity;BMP_temperature;BMP_pressure;BME280_temperature;BME280_humidity;BME280_pressure;Samples;Min_cycle;Max_cycle;Signal;HPM_P1;HPM_P2
2021/06/01 00:01:51;;;;;;;2.42;1.33;;;19.40;99.90;;;;;;5066938;28;20032;-63
2021/06/01 00:04:17;;;;;;;1.90;1.23;;;19.40;99.90;;;;;;5069488;28;20059;-64
2021/06/01 00:06:44;;;;;;;3.90;1.27;;;19.30;99.90;;;;;;5069568;28;20020;-64
2021/06/01 00:09:12;;;;;;;2.08;1.45;;;19.40;99.90;;;;;;5069101;28;20021;-64
2021/06/01 00:11:39;;;;;;;2.35;1.20;;;19.40;99.90;;;;;;5069504;28;20029;-63
2021/06/01 00:14:07;;;;;;;1.70;1.05;;;19.30;99.90;;;;;;5069305;28;20056;-61
2021/06/01 00:16:34;;;;;;;1.45;1.13;;;19.10;99.90;;;;;;5069518;28;20028;-61
2021/06/01 00:19:00;;;;;;;1.20;1.10;;;19.10;99.90;;;;;;5068549;28;20032;-62
2021/06/01 00:21:26;;;;;;;1.15;0.93;;;19.20;99.90;;;;;;5069566;28;20061;-62
2021/06/01 00:23:54;;;;;;;1.83;1.10;;;19.10;99.90;;;;;;5069435;28;20063;-61
2021/06/01 00:26:21;;;;;;;1.52;0.98;;;19.20;99.90;;;;;;5069097;28;20622;-64
2021/06/01 00:28:47;;;;;;;1.98;1.10;;;19.00;99.90;;;;;;5068512;28;20021;-63
2021/06/01 00:31:13;;;;;;;2.25;1.10;;;19.00;99.90;;;;;;5069303;28;20035;-66
2021/06/01 00:33:40;;;;;;;1.50;1.10;;;18.90;99.90;;;;;;5069590;28;20017;-66
2021/06/01 00:36:07;;;;;;;1.50;1.00;;;19.00;99.90;;;;;;5069012;28;20051;-62
2021/06/01 00:38:36;;;;;;;1.45;1.08;;;19.00;99.90;;;;;;5068286;28;20533;-62
2021/06/01 00:41:04;;;;;;;1.33;0.90;;;19.00;99.90;;;;;;5069045;28;20031;-61
2021/06/01 00:43:30;;;;;;;2.17;0.85;;;18.90;99.90;;;;;;5068995;28;20083;-64
2021/06/01 00:45:56;;;;;;;0.70;0.70;;;18.90;99.90;;;;;;5068557;28;20035;-60
2021/06/01 00:48:22;;;;;;;1.15;0.90;;;18.90;99.90;;;;;;5067698;28;20387;-64
2021/06/01 00:50:47;;;;;;;1.52;0.90;;;18.80;99.90;;;;;;5069173;28;20024;-65
2021/06/01 00:53:13;;;;;;;2.50;1.02;;;18.70;99.90;;;;;;5068255;28;20105;-63
2021/06/01 00:55:39;;;;;;;1.00;0.80;;;18.80;99.90;;;;;;5069311;28;20672;-62
2021/06/01 00:58:08;;;;;;;1.80;1.02;;;18.80;99.90;;;;;;5067753;28;20029;-62
2021/06/01 01:03:00;;;;;;;2.40;1.25;;;18.70;99.90;;;;;;5068062;28;20039;-62
2021/06/01 01:05:32;;;;;;;1.55;1.10;;;18.60;99.90;;;;;;5068569;28;20025;-62
2021/06/01 01:11:16;;;;;;;1.42;0.93;;;18.70;99.90;;;;;;5067276;28;20058;-61
2021/06/01 01:13:50;;;;;;;1.20;0.90;;;18.70;99.90;;;;;;5067316;28;20079;-63
2021/06/01 01:16:18;;;;;;;4.53;1.15;;;18.60;99.90;;;;;;5068376;28;20483;-61
2021/06/01 01:18:48;;;;;;;1.88;1.25;;;18.60;99.90;;;;;;5068295;28;20021;-63
2021/06/01 01:21:14;;;;;;;2.35;1.17;;;18.60;99.90;;;;;;5067034;28;20029;-62
2021/06/01 01:23:47;;;;;;;1.85;0.98;;;18.60;99.90;;;;;;5068988;28;20027;-62
2021/06/01 01:26:35;;;;;;;1.63;0.70;;;18.60;99.90;;;;;;5068373;28;20021;-70
2021/06/01 01:29:13;;;;;;;1.08;0.73;;;18.60;99.90;;;;;;5068121;28;20383;-62
2021/06/01 01:31:42;;;;;;;2.45;0.77;;;18.60;99.90;;;;;;5059216;28;20024;-61
2021/06/01 01:34:10;;;;;;;0.80;0.80;;;18.60;99.90;;;;;;5068263;28;20100;-61
2021/06/01 01:36:38;;;;;;;1.20;1.02;;;18.60;99.90;;;;;;5068516;28;20024;-61
2021/06/01 01:39:05;;;;;;;0.50;0.50;;;18.50;99.90;;;;;;5066203;28;20032;-62
2021/06/01 01:41:35;;;;;;;2.25;0.90;;;18.60;99.90;;;;;;5067752;28;20144;-62
2021/06/01 01:44:07;;;;;;;0.65;0.65;;;18.60;99.90;;;;;;5067694;28;20059;-61
2021/06/01 01:46:53;;;;;;;1.35;1.10;;;18.60;99.90;;;;;;5067152;28;20051;-61
2021/06/01 01:49:23;;;;;;;0.98;0.60;;;18.60;99.90;;;;;;5065736;28;20095;-62
2021/06/01 01:51:59;;;;;;;1.30;0.80;;;18.60;99.90;;;;;;5067159;28;20375;-61
2021/06/01 01:54:30;;;;;;;1.13;0.60;;;18.60;99.90;;;;;;5067196;28;20021;-61
2021/06/01 01:57:06;;;;;;;0.55;0.55;;;18.60;99.80;;;;;;5067467;28;20024;-61
2021/06/01 01:59:33;;;;;;;0.63;0.47;;;18.70;99.60;;;;;;5066995;28;20029;-61
2021/06/01 02:02:00;;;;;;;0.43;0.30;;;18.90;99.80;;;;;;5067647;28;20115;-61
2021/06/01 02:04:28;;;;;;;0.40;0.40;;;19.00;99.50;;;;;;5067221;28;20480;-62
2021/06/01 02:06:55;;;;;;;0.47;0.47;;;19.00;99.50;;;;;;5066478;28;20103;-62
2021/06/01 02:09:21;;;;;;;0.43;0.43;;;19.00;99.80;;;;;;5067086;28;20058;-62
2021/06/01 02:11:47;;;;;;;0.40;0.40;;;19.10;99.70;;;;;;5067307;28;20037;-61
2021/06/01 02:14:13;;;;;;;0.65;0.45;;;19.10;99.70;;;;;;5066226;28;20023;-61
2021/06/01 02:16:41;;;;;;;0.55;0.55;;;19.10;99.70;;;;;;5066996;28;20033;-61
2021/06/01 02:19:09;;;;;;;0.57;0.40;;;19.20;99.70;;;;;;5067450;28;20987;-61
2021/06/01 02:24:33;;;;;;;0.75;0.70;;;19.00;99.90;;;;;;5066781;28;20442;-61
2021/06/01 02:27:16;;;;;;;1.05;0.73;;;19.00;99.90;;;;;;5065640;28;20479;-61
2021/06/01 02:30:09;;;;;;;0.45;0.40;;;19.00;99.90;;;;;;5067003;28;20072;-61
2021/06/01 02:32:45;;;;;;;0.40;0.40;;;18.90;99.90;;;;;;5065541;28;20497;-62
2021/06/01 02:35:22;;;;;;;0.43;0.43;;;18.90;99.90;;;;;;5067394;28;20029;-61
2021/06/01 02:37:50;;;;;;;0.38;0.35;;;18.90;99.90;;;;;;5066337;28;20043;-61
2021/06/01 02:40:20;;;;;;;0.50;0.50;;;18.90;99.90;;;;;;5066248;28;20693;-61
2021/06/01 02:42:48;;;;;;;0.50;0.50;;;18.90;99.90;;;;;;5067256;28;20036;-61
2021/06/01 02:45:17;;;;;;;0.43;0.43;;;18.80;99.90;;;;;;5066749;28;20799;-61
2021/06/01 02:47:44;;;;;;;0.60;0.57;;;18.90;99.90;;;;;;5065401;28;20562;-61
2021/06/01 02:50:12;;;;;;;0.40;0.40;;;18.90;99.90;;;;;;5067112;28;20020;-62
2021/06/01 02:52:40;;;;;;;0.43;0.40;;;18.90;99.90;;;;;;5066796;28;20033;-61
2021/06/01 02:55:08;;;;;;;0.60;0.50;;;18.90;99.90;;;;;;5066114;28;20027;-61
2021/06/01 02:57:36;;;;;;;0.57;0.50;;;18.90;99.90;;;;;;5065557;28;20041;-61
2021/06/01 03:00:02;;;;;;;0.30;0.30;;;18.80;99.90;;;;;;5066290;28;20033;-61
2021/06/01 03:02:29;;;;;;;3.30;0.50;;;18.70;99.90;;;;;;5066512;28;20071;-61
2021/06/01 03:04:55;;;;;;;0.80;0.65;;;18.80;99.90;;;;;;5066721;28;20024;-61
2021/06/01 03:07:22;;;;;;;0.55;0.55;;;18.80;99.90;;;;;;5065184;28;20063;-61
2021/06/01 03:09:48;;;;;;;0.40;0.40;;;18.70;99.90;;;;;;5066339;28;20691;-61
2021/06/01 03:15:00;;;;;;;0.43;0.43;;;18.70;99.90;;;;;;5066461;28;20024;-61
2021/06/01 03:17:25;;;;;;;0.40;0.40;;;18.70;99.90;;;;;;5065538;28;20036;-61
2021/06/01 03:19:51;;;;;;;0.68;0.50;;;18.70;99.90;;;;;;5066446;28;20029;-61
2021/06/01 03:22:17;;;;;;;0.75;0.40;;;18.60;99.90;;;;;;5066100;28;20056;-61
2021/06/01 03:24:43;;;;;;;0.98;0.55;;;18.60;99.90;;;;;;5066297;28;20029;-61
2021/06/01 03:27:08;;;;;;;0.52;0.32;;;18.70;99.90;;;;;;5065597;28;20035;-61
2021/06/01 03:29:34;;;;;;;0.50;0.50;;;18.70;99.90;;;;;;5066233;28;20578;-61
2021/06/01 03:32:00;;;;;;;0.60;0.50;;;18.70;99.90;;;;;;5066366;28;20041;-61
2021/06/01 03:34:26;;;;;;;0.98;0.52;;;18.50;99.90;;;;;;5066389;28;20031;-61
2021/06/01 03:36:52;;;;;;;0.77;0.52;;;18.50;99.90;;;;;;5066161;28;20028;-61
2021/06/01 03:39:21;;;;;;;0.52;0.50;;;18.60;99.90;;;;;;5070294;28;20102;-61
2021/06/01 03:41:48;;;;;;;0.45;0.45;;;18.50;99.90;;;;;;5070434;28;20032;-61
2021/06/01 03:44:14;;;;;;;0.50;0.50;;;18.60;99.90;;;;;;5070030;28;20025;-61
2021/06/01 03:46:40;;;;;;;0.40;0.40;;;18.50;99.90;;;;;;5069823;28;20040;-61
2021/06/01 03:49:06;;;;;;;0.65;0.50;;;18.50;99.90;;;;;;5070044;28;20464;-61
2021/06/01 03:51:31;;;;;;;0.40;0.40;;;18.40;99.90;;;;;;5069035;28;20029;-61
2021/06/01 03:53:57;;;;;;;0.55;0.47;;;18.50;99.90;;;;;;5070129;28;20081;-61
2021/06/01 03:56:23;;;;;;;0.50;0.50;;;18.50;99.90;;;;;;5068818;28;20052;-62
2021/06/01 03:58:49;;;;;;;0.50;0.50;;;18.40;99.90;;;;;;5068985;28;20111;-61
2021/06/01 04:01:15;;;;;;;0.75;0.50;;;18.20;99.90;;;;;;5068015;28;20121;-61
2021/06/01 04:03:41;;;;;;;0.52;0.50;;;18.10;99.90;;;;;;5069898;28;20512;-61
2021/06/01 04:06:12;;;;;;;3.05;0.40;;;17.90;99.90;;;;;;5069903;28;20029;-61
2021/06/01 04:08:39;;;;;;;0.63;0.50;;;17.80;99.90;;;;;;5069527;28;20094;-61
2021/06/01 04:11:05;;;;;;;0.60;0.60;;;17.70;99.90;;;;;;5067994;28;20520;-61
2021/06/01 04:13:31;;;;;;;0.50;0.50;;;18.10;99.90;;;;;;5069748;28;20031;-61
2021/06/01 04:15:56;;;;;;;1.02;0.50;;;18.00;99.90;;;;;;5068939;28;20021;-61
2021/06/01 04:18:22;;;;;;;0.40;0.40;;;18.10;99.90;;;;;;5068201;28;20032;-61
2021/06/01 04:20:49;;;;;;;0.65;0.52;;;18.20;99.90;;;;;;5069396;28;20024;-61
2021/06/01 04:23:14;;;;;;;0.80;0.73;;;18.10;99.90;;;;;;5065048;28;21479;-61
2021/06/01 04:25:40;;;;;;;0.95;0.50;;;17.90;99.90;;;;;;5069985;28;20047;-61
2021/06/01 04:28:06;;;;;;;1.10;0.40;;;18.00;99.90;;;;;;5060379;28;20029;-61
2021/06/01 04:30:33;;;;;;;0.68;0.50;;;18.20;99.90;;;;;;5066325;28;20428;-61
2021/06/01 04:32:58;;;;;;;0.40;0.40;;;18.20;99.90;;;;;;5068942;28;20406;-62
2021/06/01 04:35:25;;;;;;;0.60;0.60;;;18.20;99.90;;;;;;5067894;28;20029;-62
2021/06/01 04:37:51;;;;;;;0.50;0.50;;;17.70;99.90;;;;;;5069226;28;20032;-61
2021/06/01 04:40:18;;;;;;;0.73;0.60;;;17.60;99.90;;;;;;5068925;28;20394;-61
2021/06/01 04:42:44;;;;;;;0.50;0.50;;;17.70;99.90;;;;;;5069169;28;20044;-61
2021/06/01 04:45:14;;;;;;;1.15;0.60;;;17.80;99.90;;;;;;5058511;28;20116;-61
2021/06/01 04:47:44;;;;;;;0.65;0.55;;;17.70;99.90;;;;;;5049173;28;20025;-61
2021/06/01 04:50:11;;;;;;;1.63;0.40;;;17.60;99.90;;;;;;5048762;28;20033;-61
2021/06/01 04:52:36;;;;;;;0.65;0.60;;;17.80;99.90;;;;;;5049202;28;20017;-61
2021/06/01 04:55:05;;;;;;;0.43;0.40;;;17.90;99.90;;;;;;5060590;28;20031;-61
2021/06/01 04:57:30;;;;;;;0.65;0.50;;;17.90;99.90;;;;;;5053394;28;20086;-61
2021/06/01 04:59:56;;;;;;;0.70;0.55;;;17.90;99.90;;;;;;5048832;28;20475;-61
2021/06/01 05:02:22;;;;;;;0.60;0.60;;;18.10;99.90;;;;;;5064532;28;20036;-61
2021/06/01 05:04:47;;;;;;;0.60;0.50;;;18.20;99.90;;;;;;5067965;28;20047;-61
2021/06/01 05:07:13;;;;;;;0.40;0.40;;;18.20;99.90;;;;;;5067906;28;20542;-61
2021/06/01 05:09:39;;;;;;;0.45;0.45;;;18.30;99.90;;;;;;5068260;28;20024;-61
2021/06/01 05:12:06;;;;;;;0.80;0.50;;;18.40;99.90;;;;;;5057963;28;20036;-61
2021/06/01 05:14:31;;;;;;;0.60;0.60;;;18.50;99.90;;;;;;5068126;28;20592;-61
2021/06/01 05:16:57;;;;;;;0.50;0.50;;;18.60;99.90;;;;;;5066941;28;20028;-61
2021/06/01 05:19:23;;;;;;;0.63;0.63;;;18.60;99.90;;;;;;5066247;28;20119;-61
2021/06/01 05:21:48;;;;;;;0.38;0.38;;;18.50;99.90;;;;;;5068548;28;20040;-61
2021/06/01 05:24:14;;;;;;;0.40;0.40;;;18.50;99.90;;;;;;5067842;28;20395;-61
2021/06/01 05:26:40;;;;;;;1.27;0.50;;;18.60;99.90;;;;;;5069011;28;20064;-61
2021/06/01 05:29:06;;;;;;;1.25;0.45;;;18.50;99.90;;;;;;5068143;28;20021;-61
2021/06/01 05:34:00;;;;;;;0.43;0.43;;;18.60;99.90;;;;;;5067891;28;20074;-62
2021/06/01 05:36:26;;;;;;;0.77;0.60;;;18.60;99.90;;;;;;5068097;28;20149;-61
2021/06/01 05:38:52;;;;;;;0.40;0.40;;;18.70;99.90;;;;;;5068292;28;20705;-61
2021/06/01 05:41:18;;;;;;;0.40;0.40;;;18.70;99.90;;;;;;5066786;28;20748;-61
2021/06/01 05:43:44;;;;;;;0.90;0.57;;;18.70;99.90;;;;;;5067851;28;20115;-61
2021/06/01 05:46:10;;;;;;;0.50;0.50;;;18.50;99.90;;;;;;5068348;28;20028;-61
2021/06/01 05:48:36;;;;;;;0.50;0.50;;;18.50;99.40;;;;;;5068360;28;20046;-61
2021/06/01 05:51:02;;;;;;;0.50;0.50;;;18.60;99.80;;;;;;5066190;28;20028;-61
2021/06/01 05:53:28;;;;;;;0.50;0.50;;;18.60;99.50;;;;;;5065906;28;20774;-61
2021/06/01 05:55:54;;;;;;;0.40;0.30;;;18.60;99.20;;;;;;5065687;28;20078;-62
2021/06/01 05:58:22;;;;;;;0.57;0.57;;;18.70;99.20;;;;;;5064000;28;20074;-61
2021/06/01 06:00:48;;;;;;;0.38;0.38;;;18.60;99.00;;;;;;5064391;28;20036;-61
2021/06/01 06:03:15;;;;;;;0.40;0.40;;;18.60;99.10;;;;;;5065290;28;20059;-61
2021/06/01 06:05:42;;;;;;;0.40;0.40;;;18.80;99.30;;;;;;5064982;28;20116;-61
2021/06/01 06:08:19;;;;;;;0.50;0.50;;;18.90;98.90;;;;;;5068209;28;20458;-61
2021/06/01 06:10:46;;;;;;;0.57;0.30;;;18.90;98.60;;;;;;5067138;28;20036;-61
2021/06/01 06:13:12;;;;;;;0.45;0.40;;;18.90;98.90;;;;;;5066686;28;20027;-61
2021/06/01 06:15:39;;;;;;;0.77;0.40;;;18.90;98.50;;;;;;5067706;28;20103;-60
2021/06/01 06:18:05;;;;;;;0.43;0.40;;;18.90;98.90;;;;;;5067119;28;20032;-62
2021/06/01 06:20:32;;;;;;;0.60;0.40;;;18.90;98.40;;;;;;5065529;28;20127;-61
2021/06/01 06:22:58;;;;;;;0.40;0.40;;;19.00;98.80;;;;;;5062417;28;20059;-63
2021/06/01 06:25:24;;;;;;;0.38;0.38;;;19.00;98.40;;;;;;5065170;28;20495;-61
2021/06/01 06:27:50;;;;;;;0.40;0.40;;;19.00;98.20;;;;;;5062501;28;20036;-62
2021/06/01 06:30:17;;;;;;;0.55;0.40;;;19.00;98.30;;;;;;5066147;28;20029;-61
2021/06/01 06:32:43;;;;;;;0.85;0.65;;;19.00;98.30;;;;;;5066794;28;20021;-62
2021/06/01 06:35:08;;;;;;;0.50;0.50;;;19.10;98.50;;;;;;5067185;28;20364;-63
2021/06/01 06:37:35;;;;;;;0.50;0.50;;;19.10;98.50;;;;;;5066162;28;20040;-62
2021/06/01 06:40:01;;;;;;;0.47;0.40;;;19.10;98.40;;;;;;5066225;28;20028;-61
2021/06/01 06:42:27;;;;;;;0.45;0.40;;;19.30;98.20;;;;;;5066715;28;20024;-61
2021/06/01 06:44:53;;;;;;;0.38;0.38;;;19.30;98.20;;;;;;5066596;28;20085;-61
2021/06/01 06:47:42;;;;;;;0.30;0.30;;;19.40;98.50;;;;;;5065599;28;20036;-61
2021/06/01 06:50:10;;;;;;;0.45;0.40;;;19.60;98.60;;;;;;5065719;28;20128;-60
2021/06/01 06:52:36;;;;;;;0.32;0.32;;;19.60;98.40;;;;;;5064340;28;20025;-61
2021/06/01 06:55:04;;;;;;;0.30;0.30;;;19.60;98.10;;;;;;5066115;28;20021;-63
2021/06/01 06:57:30;;;;;;;0.60;0.60;;;19.60;98.50;;;;;;5066441;28;20040;-61
2021/06/01 06:59:56;;;;;;;0.43;0.43;;;19.70;98.10;;;;;;5064161;28;20026;-61
2021/06/01 07:02:24;;;;;;;0.50;0.50;;;19.60;98.10;;;;;;5063083;28;20036;-61
2021/06/01 07:04:49;;;;;;;0.50;0.47;;;19.60;97.70;;;;;;5064761;28;20036;-61
2021/06/01 07:07:15;;;;;;;0.30;0.30;;;19.60;98.00;;;;;;5064672;28;20113;-61
2021/06/01 07:09:41;;;;;;;0.50;0.50;;;19.60;98.90;;;;;;5066739;28;20464;-61
2021/06/01 07:12:08;;;;;;;0.60;0.47;;;19.70;98.20;;;;;;5065504;28;20024;-61
2021/06/01 07:14:57;;;;;;;1.05;0.50;;;19.80;98.30;;;;;;5066126;28;20051;-61
2021/06/01 07:17:23;;;;;;;0.70;0.43;;;19.80;98.00;;;;;;5063932;28;20032;-61
2021/06/01 07:19:55;;;;;;;0.52;0.40;;;19.90;98.20;;;;;;5064983;28;20067;-60
2021/06/01 07:22:21;;;;;;;0.47;0.38;;;19.90;98.50;;;;;;5057214;28;20059;-61
2021/06/01 07:24:48;;;;;;;0.40;0.40;;;20.10;98.70;;;;;;5066159;28;20440;-61
2021/06/01 07:27:14;;;;;;;0.40;0.40;;;20.10;98.80;;;;;;5065322;28;20051;-61
2021/06/01 07:29:40;;;;;;;0.40;0.40;;;20.20;98.60;;;;;;5065678;28;20029;-62
2021/06/01 07:32:06;;;;;;;0.60;0.50;;;20.20;98.40;;;;;;5059877;28;20020;-61
2021/06/01 07:34:33;;;;;;;0.40;0.40;;;20.10;98.70;;;;;;5059875;28;20028;-61
2021/06/01 07:36:58;;;;;;;0.40;0.40;;;20.30;99.20;;;;;;5063067;28;20449;-61
2021/06/01 07:39:24;;;;;;;5.38;0.88;;;20.20;99.00;;;;;;5064461;28;20039;-61
2021/06/01 07:41:51;;;;;;;0.60;0.40;;;20.20;98.90;;;;;;5064443;28;20039;-61
2021/06/01 07:44:16;;;;;;;0.60;0.60;;;20.20;98.80;;;;;;5063819;28;20036;-61
2021/06/01 07:46:43;;;;;;;1.35;0.75;;;20.10;99.00;;;;;;5064228;28;20290;-61
2021/06/01 07:49:10;;;;;;;0.40;0.40;;;20.30;99.50;;;;;;5064879;28;20024;-60
2021/06/01 07:51:37;;;;;;;0.45;0.45;;;20.40;99.40;;;;;;5064142;28;20494;-61
2021/06/01 07:54:06;;;;;;;0.75;0.60;;;20.50;99.90;;;;;;5063714;28;20066;-61
2021/06/01 07:56:33;;;;;;;0.90;0.60;;;20.40;99.90;;;;;;5064428;28;20115;-61
2021/06/01 07:58:58;;;;;;;0.75;0.50;;;20.50;99.90;;;;;;5063967;28;20461;-61
2021/06/01 08:01:25;;;;;;;1.08;0.70;;;20.40;99.90;;;;;;5064107;28;20021;-61
2021/06/01 08:03:51;;;;;;;0.50;0.50;;;20.30;99.90;;;;;;5064154;28;20021;-61
2021/06/01 08:06:17;;;;;;;0.80;0.63;;;20.40;99.90;;;;;;5064026;28;20097;-61
2021/06/01 08:08:43;;;;;;;0.98;0.65;;;20.40;99.90;;;;;;5064282;28;20021;-62
2021/06/01 08:11:09;;;;;;;0.90;0.90;;;20.50;99.90;;;;;;5064555;28;20534;-61
2021/06/01 08:13:35;;;;;;;0.60;0.57;;;20.50;99.90;;;;;;5063765;28;20128;-61
2021/06/01 08:16:03;;;;;;;0.50;0.50;;;20.70;99.90;;;;;;5063889;28;20100;-61
2021/06/01 08:18:34;;;;;;;1.15;0.88;;;20.70;99.90;;;;;;5064382;28;20024;-61
2021/06/01 08:21:07;;;;;;;1.48;0.70;;;20.60;99.90;;;;;;5063967;28;20025;-61
2021/06/01 08:23:35;;;;;;;1.00;0.80;;;20.60;99.90;;;;;;5064666;28;20464;-62
2021/06/01 08:26:01;;;;;;;1.85;0.70;;;20.80;99.90;;;;;;5067531;28;20497;-61
2021/06/01 08:28:26;;;;;;;0.85;0.85;;;20.80;99.90;;;;;;5067680;28;20120;-63
2021/06/01 08:30:53;;;;;;;0.57;0.57;;;20.80;99.90;;;;;;5067412;28;20040;-61
2021/06/01 08:33:20;;;;;;;1.13;0.65;;;20.80;99.90;;;;;;5067344;28;20028;-61
2021/06/01 08:35:46;;;;;;;0.73;0.70;;;20.80;99.90;;;;;;5067397;28;20025;-64
2021/06/01 08:38:14;;;;;;;0.70;0.70;;;20.80;99.90;;;;;;5067213;28;20024;-61
2021/06/01 08:40:40;;;;;;;1.08;0.80;;;20.80;99.90;;;;;;5066871;28;20032;-63
2021/06/01 08:43:32;;;;;;;1.55;0.90;;;20.90;99.90;;;;;;5067630;28;20054;-62
2021/06/01 08:45:58;;;;;;;1.65;0.90;;;21.00;99.70;;;;;;5066269;28;20085;-61
2021/06/01 08:48:26;;;;;;;1.88;1.08;;;20.90;99.50;;;;;;5067038;28;20028;-61
2021/06/01 08:50:54;;;;;;;1.77;1.15;;;20.90;99.70;;;;;;5066976;28;20451;-61
2021/06/01 08:53:20;;;;;;;1.92;0.90;;;20.90;99.60;;;;;;5066439;28;20028;-61
2021/06/01 08:55:48;;;;;;;0.80;0.80;;;21.10;99.90;;;;;;5065614;28;20031;-61
2021/06/01 08:58:22;;;;;;;1.00;0.85;;;21.20;99.90;;;;;;5067111;28;20063;-61
2021/06/01 09:00:49;;;;;;;1.52;0.90;;;21.20;99.90;;;;;;5066845;28;20032;-61
2021/06/01 09:03:21;;;;;;;0.75;0.68;;;21.30;99.90;;;;;;5066640;28;20111;-61
2021/06/01 09:11:55;;;;;;;0.77;0.73;;;21.40;99.90;;;;;;5066136;28;20038;-61
2021/06/01 09:23:02;;;;;;;0.68;0.65;;;21.60;99.90;;;;;;5067235;28;20035;-61
2021/06/01 09:25:39;;;;;;;0.80;0.65;;;21.80;99.90;;;;;;5066440;28;20032;-62
2021/06/01 09:28:13;;;;;;;0.50;0.50;;;21.90;99.90;;;;;;5066225;28;20024;-63
2021/06/01 09:30:41;;;;;;;;;;;22.00;99.90;;;;;;5066749;28;20077;-60
2021/06/01 09:33:14;;;;;;;0.80;0.77;;;22.10;99.90;;;;;;5065033;28;20424;-61
2021/06/01 09:35:53;;;;;;;0.60;0.60;;;22.10;99.70;;;;;;5066045;28;20052;-61
2021/06/01 09:38:41;;;;;;;0.70;0.60;;;22.20;99.90;;;;;;5066238;28;20054;-61
2021/06/01 09:41:09;;;;;;;1.00;0.77;;;22.00;99.90;;;;;;5064585;28;20493;-61
2021/06/01 09:43:48;;;;;;;1.85;0.90;;;22.10;99.70;;;;;;5066285;28;20430;-62
2021/06/01 09:46:20;;;;;;;2.10;1.08;;;21.90;99.90;;;;;;5066052;28;20115;-61
2021/06/01 09:48:47;;;;;;;0.75;0.75;;;22.10;99.90;;;;;;5066216;28;20422;-61
2021/06/01 09:51:26;;;;;;;1.00;0.90;;;22.20;99.90;;;;;;5065404;28;20020;-61
2021/06/01 09:53:54;;;;;;;0.80;0.80;;;22.20;99.90;;;;;;5066009;28;20054;-61
2021/06/01 09:56:20;;;;;;;1.50;1.05;;;22.20;99.90;;;;;;5065803;28;20111;-61
2021/06/01 09:58:46;;;;;;;1.02;0.93;;;22.10;99.90;;;;;;5065963;28;20063;-61
2021/06/01 10:01:12;;;;;;;1.35;1.00;;;22.10;99.90;;;;;;5065815;28;20024;-64
2021/06/01 10:03:45;;;;;;;1.85;1.13;;;22.10;99.70;;;;;;5066234;28;20536;-60
2021/06/01 10:06:12;;;;;;;1.13;1.02;;;22.10;99.90;;;;;;5065636;28;20040;-60
2021/06/01 10:08:49;;;;;;;0.80;0.80;;;22.20;99.90;;;;;;5065991;28;20096;-61
2021/06/01 10:11:15;;;;;;;1.75;1.10;;;22.40;99.90;;;;;;5065081;28;20025;-60
2021/06/01 10:13:42;;;;;;;1.92;1.30;;;22.40;99.90;;;;;;5064429;28;20501;-61
2021/06/01 10:16:15;;;;;;;1.40;1.08;;;22.50;99.90;;;;;;5065624;28;20047;-62
2021/06/01 10:18:42;;;;;;;2.93;1.07;;;22.40;99.90;;;;;;5065871;28;20079;-61
2021/06/01 10:21:11;;;;;;;1.00;0.90;;;22.60;99.90;;;;;;5065429;28;20402;-61
2021/06/01 10:23:39;;;;;;;2.33;1.00;;;22.70;99.90;;;;;;5065577;28;20441;-61
2021/06/01 10:26:07;;;;;;;1.20;1.10;;;22.80;99.90;;;;;;5065463;28;20028;-60
2021/06/01 10:28:36;;;;;;;1.73;0.95;;;22.70;99.90;;;;;;5066084;28;20094;-61
2021/06/01 10:31:06;;;;;;;1.33;0.82;;;22.80;99.90;;;;;;5065622;28;20040;-61
2021/06/01 10:33:43;;;;;;;1.10;1.00;;;23.00;99.90;;;;;;5066093;28;20427;-61
2021/06/01 10:52:15;;;;;;;1.50;1.40;;;23.00;99.90;;;;;;5064610;28;20036;-61
2021/06/01 10:54:43;;;;;;;1.15;1.02;;;23.20;99.70;;;;;;5064163;28;20028;-61
2021/06/01 10:57:12;;;;;;;1.13;1.02;;;23.30;99.90;;;;;;5065081;28;20043;-61
2021/06/01 10:59:48;;;;;;;2.40;1.20;;;23.40;99.10;;;;;;5063729;28;20021;-61
2021/06/01 11:02:16;;;;;;;1.85;1.02;;;23.40;99.30;;;;;;5065028;28;20468;-64
2021/06/01 11:05:13;;;;;;;1.67;1.30;;;23.30;99.10;;;;;;5065449;28;20016;-61
2021/06/01 11:07:51;;;;;;;1.10;1.00;;;23.30;99.40;;;;;;5064623;28;20039;-61
2021/06/01 11:10:53;;;;;;;2.10;1.10;;;23.30;99.30;;;;;;5061897;28;20021;-62
2021/06/01 11:13:18;;;;;;;1.95;0.95;;;23.60;99.10;;;;;;5041700;28;20033;-62
2021/06/01 11:15:54;;;;;;;0.90;0.70;;;23.60;98.80;;;;;;5060601;28;20106;-64
2021/06/01 11:18:27;;;;;;;1.27;0.90;;;23.80;98.80;;;;;;5063991;28;20024;-62
2021/06/01 11:21:17;;;;;;;1.20;1.10;;;23.90;98.90;;;;;;5064804;28;20096;-61
2021/06/01 11:35:23;;;;;;;3.58;1.10;;;23.90;98.70;;;;;;5065291;28;20028;-61
2021/06/01 11:43:09;;;;;;;1.38;1.17;;;24.30;97.60;;;;;;5063896;28;20091;-61
2021/06/01 11:51:21;;;;;;;2.50;1.23;;;24.70;97.30;;;;;;5064429;28;20040;-62
2021/06/01 11:53:54;;;;;;;7.47;1.40;;;24.80;97.40;;;;;;5061064;28;20024;-62
2021/06/01 11:57:01;;;;;;;1.60;1.05;;;24.90;96.60;;;;;;5062335;28;20757;-64
2021/06/01 12:19:02;;;;;;;;;;;25.90;94.60;;;;;;5067589;28;20030;-62
2021/06/01 12:21:34;;;;;;;2.35;1.20;;;25.80;94.90;;;;;;5067546;28;19908;-61
2021/06/01 12:24:08;;;;;;;1.27;1.10;;;26.10;95.20;;;;;;5067171;28;20388;-67
2021/06/01 12:26:48;;;;;;;;;;;26.40;95.30;;;;;;5066570;28;20039;-65
2021/06/01 12:32:17;;;;;;;3.70;1.50;;;26.30;94.90;;;;;;5067037;28;20044;-64
2021/06/01 12:46:09;;;;;;;1.50;1.20;;;26.50;94.10;;;;;;5066035;28;20418;-64
2021/06/01 13:19:28;;;;;;;2.83;1.38;;;26.90;95.00;;;;;;5066357;28;20109;-61
2021/06/01 13:22:15;;;;;;;1.52;1.30;;;26.90;95.20;;;;;;5065091;28;20028;-62
2021/06/01 13:31:39;;;;;;;1.58;1.10;;;26.40;95.40;;;;;;5063755;28;20047;-61
2021/06/01 13:47:14;;;;;;;2.15;1.40;;;26.20;95.20;;;;;;5065529;28;20031;-69
2021/06/01 13:49:43;;;;;;;1.85;1.20;;;26.20;94.80;;;;;;5075001;28;20024;-61
2021/06/01 14:01:04;;;;;;;2.85;1.50;;;26.20;95.00;;;;;;5065306;28;20031;-60
2021/06/01 14:20:14;;;;;;;2.72;1.30;;;26.10;95.30;;;;;;5056534;28;20406;-63
2021/06/01 14:28:45;;;;;;;4.28;1.45;;;25.70;95.60;;;;;;5034461;28;20048;-60
2021/06/01 16:12:21;;;;;;;2.78;1.40;;;27.30;94.90;;;;;;5070234;28;20048;-65
2021/06/01 16:15:16;;;;;;;1.92;1.30;;;27.00;95.00;;;;;;5071034;28;20025;-62
2021/06/01 16:21:38;;;;;;;3.13;1.50;;;26.80;95.10;;;;;;5064244;28;20060;-62
2021/06/01 16:23:33;;;;;;;2.35;1.30;;;26.90;95.30;;;;;;5056768;28;20041;-63
2021/06/01 16:31:39;;;;;;;1.27;1.13;;;26.60;95.10;;;;;;5071518;28;20517;-61
2021/06/01 17:06:55;;;;;;;2.45;1.58;;;25.70;96.10;;;;;;5067588;28;20491;-62
2021/06/01 17:11:55;;;;;;;;;;;25.80;95.90;;;;;;5060665;28;20060;-61
2021/06/01 17:14:26;;;;;;;2.03;1.70;;;25.80;95.80;;;;;;5052198;28;20324;-62
2021/06/01 17:17:01;;;;;;;5.00;1.60;;;25.60;96.00;;;;;;5057613;28;20028;-62
2021/06/01 17:30:34;;;;;;;2.13;1.40;;;25.50;96.30;;;;;;5062417;28;20091;-61
2021/06/01 17:35:21;;;;;;;2.05;1.50;;;25.30;96.50;;;;;;5061911;28;20024;-61
2021/06/01 17:37:48;;;;;;;1.63;1.42;;;25.10;96.40;;;;;;5064192;28;20033;-61
2021/06/01 17:40:18;;;;;;;2.95;1.33;;;25.00;96.80;;;;;;5062975;28;20071;-61
2021/06/01 17:42:56;;;;;;;2.03;1.45;;;24.70;96.90;;;;;;5062766;28;20107;-61
2021/06/01 17:45:24;;;;;;;1.95;1.55;;;24.80;97.00;;;;;;5056875;28;20025;-62
2021/06/01 17:48:01;;;;;;;2.72;1.50;;;24.80;96.80;;;;;;5055906;28;20451;-61
2021/06/01 17:50:27;;;;;;;1.90;1.50;;;24.60;96.90;;;;;;5054643;28;20052;-62
2021/06/01 17:52:59;;;;;;;2.13;1.40;;;24.50;96.90;;;;;;5061116;28;20040;-61
2021/06/01 17:55:27;;;;;;;1.75;1.40;;;24.30;97.10;;;;;;5066404;28;20025;-63
2021/06/01 17:57:54;;;;;;;1.50;1.40;;;24.30;97.10;;;;;;5066342;28;20041;-61
2021/06/01 18:00:21;;;;;;;5.50;1.20;;;24.20;97.30;;;;;;5062753;28;20029;-64
2021/06/01 18:02:49;;;;;;;3.80;1.63;;;24.20;97.20;;;;;;5058045;28;20021;-62
2021/06/01 18:05:17;;;;;;;2.67;1.80;;;24.00;97.20;;;;;;5051010;28;20021;-64
2021/06/01 18:13:30;;;;;;;2.30;1.40;;;23.60;97.60;;;;;;5055120;28;20147;-61
2021/06/01 19:52:01;;;;;;;1.52;1.30;;;20.90;99.10;;;;;;5059190;28;20032;-64
2021/06/01 19:54:29;;;;;;;4.93;1.35;;;20.80;98.70;;;;;;5058608;28;20037;-64
2021/06/01 19:56:55;;;;;;;1.98;1.48;;;20.70;98.60;;;;;;5057361;28;20040;-61
2021/06/01 19:59:23;;;;;;;1.63;1.30;;;20.70;98.70;;;;;;5064481;28;20450;-62
2021/06/01 20:01:50;;;;;;;2.15;1.33;;;20.70;98.70;;;;;;5060943;28;20029;-64
2021/06/01 20:04:16;;;;;;;2.15;1.40;;;20.60;99.10;;;;;;5061699;28;20033;-63
2021/06/01 20:06:42;;;;;;;2.30;1.63;;;20.50;99.10;;;;;;5060983;28;20054;-66
2021/06/01 20:09:07;;;;;;;2.15;1.45;;;20.50;99.20;;;;;;5083594;28;20020;-67
2021/06/01 20:11:36;;;;;;;2.70;1.38;;;20.50;99.50;;;;;;5082837;28;20039;-68
2021/06/01 20:14:02;;;;;;;1.17;1.08;;;20.40;99.70;;;;;;5083415;28;20527;-70
2021/06/01 20:16:34;;;;;;;2.30;1.15;;;20.40;99.80;;;;;;5083708;28;20705;-67
2021/06/01 20:19:01;;;;;;;3.75;1.50;;;20.40;99.90;;;;;;5084793;28;20036;-69
2021/06/01 20:21:27;;;;;;;2.10;1.60;;;20.40;99.90;;;;;;5073851;28;20040;-64